^^
Grace C. Lehan Memorial Weather Station Historical Data
Daily Summary for January 1, 2021 Units:  Both    English   Metric
Daily Weekly Monthly Yearly
  High: Low: Average:
Temperature: 69.8 °F /  21 °C 61.6 °F /  16.4 °C 66.6 °F /  19.2 °C
Dew Point: 65.3 °F /  18.5 °C 60.6 °F /  15.9 °C 64 °F /  17.8 °C
Humidity: 97% 81.1% 92%
Wind Speed: 7.7mph /  12.4km/h - 1mph /  1.6km/h
Wind Gust: 20mph /  32.2km/h - -
Wind- - SE
Pressure: 29.84 in /  1010.4 hPa 29.60 in /  1002.3 hPa -
Precipitation: 4.05 in /  102.87 mm    
 
 
Tabular Data for January 1, 2021
Time Temperature Dew Point Pressure Wind Wind Speed Wind Gust Humidity Rainfall Rate (Hourly) solar
00:04 69.8 °F /  21 °C 64.1 °F /  17.8 °C 29.75in /  1007.3hPa Calm     82% 0.00in /  0mm 0 W/m2
00:09 69.7 °F /  20.9 °C 63.7 °F /  17.6 °C 29.75in /  1007.3hPa Calm     81.2% 0.00in /  0mm 0 W/m2
00:14 69.7 °F /  20.9 °C 63.6 °F /  17.6 °C 29.75in /  1007.3hPa Calm     81.1% 0.00in /  0mm 0 W/m2
00:19 69.7 °F /  20.9 °C 63.7 °F /  17.6 °C 29.76in /  1007.7hPa Calm     81.3% 0.00in /  0mm 0 W/m2
00:24 69.7 °F /  20.9 °C 63.8 °F /  17.7 °C 29.76in /  1007.7hPa Calm     81.6% 0.00in /  0mm 0 W/m2
00:29 69.7 °F /  20.9 °C 63.9 °F /  17.7 °C 29.76in /  1007.7hPa Calm     81.8% 0.00in /  0mm 0 W/m2
00:34 69.7 °F /  20.9 °C 64 °F /  17.8 °C 29.76in /  1007.7hPa Calm     82% 0.00in /  0mm 0 W/m2
00:39 69.7 °F /  20.9 °C 64 °F /  17.8 °C 29.76in /  1007.7hPa Calm     82% 0.00in /  0mm 0 W/m2
00:44 69.6 °F /  20.9 °C 63.9 °F /  17.7 °C 29.76in /  1007.7hPa Calm     82% 0.00in /  0mm 0 W/m2
00:49 69.6 °F /  20.9 °C 63.9 °F /  17.7 °C 29.76in /  1007.7hPa Calm     82% 0.00in /  0mm 0 W/m2
00:54 69.5 °F /  20.8 °C 63.8 °F /  17.7 °C 29.76in /  1007.7hPa Calm     82% 0.00in /  0mm 0 W/m2
00:59 69.4 °F /  20.8 °C 63.9 °F /  17.7 °C 29.76in /  1007.7hPa Calm     82.6% 0.00in /  0mm 0 W/m2
01:04 69.3 °F /  20.7 °C 63.9 °F /  17.7 °C 29.76in /  1007.7hPa Calm     83% 0.00in /  0mm 0 W/m2
01:09 69.2 °F /  20.7 °C 63.8 °F /  17.7 °C 29.76in /  1007.7hPa Calm     83% 0.00in /  0mm 0 W/m2
01:14 69.1 °F /  20.6 °C 63.8 °F /  17.7 °C 29.76in /  1007.7hPa Calm     83% 0.00in /  0mm 0 W/m2
01:19 69.1 °F /  20.6 °C 63.7 °F /  17.6 °C 29.76in /  1007.7hPa Calm     83% 0.00in /  0mm 0 W/m2
01:24 69 °F /  20.6 °C 63.7 °F /  17.6 °C 29.76in /  1007.7hPa Calm     83% 0.00in /  0mm 0 W/m2
01:29 69 °F /  20.6 °C 63.6 °F /  17.6 °C 29.75in /  1007.3hPa Calm     83% 0.00in /  0mm 0 W/m2
01:34 69 °F /  20.6 °C 63.7 °F /  17.6 °C 29.76in /  1007.7hPa Calm     83.3% 0.00in /  0mm 0 W/m2
01:39 69 °F /  20.6 °C 63.9 °F /  17.7 °C 29.76in /  1007.7hPa Calm     83.7% 0.00in /  0mm 0 W/m2
01:44 69 °F /  20.6 °C 64 °F /  17.8 °C 29.75in /  1007.3hPa Calm     84% 0.00in /  0mm 0 W/m2
01:49 68.9 °F /  20.5 °C 63.9 °F /  17.7 °C 29.75in /  1007.3hPa Calm     84% 0.00in /  0mm 0 W/m2
01:54 68.8 °F /  20.4 °C 63.8 °F /  17.7 °C 29.75in /  1007.3hPa Calm     84% 0.00in /  0mm 0 W/m2
01:59 68.7 °F /  20.4 °C 63.7 °F /  17.6 °C 29.75in /  1007.3hPa Calm     84% 0.00in /  0mm 0 W/m2
02:04 68.7 °F /  20.4 °C 63.7 °F /  17.6 °C 29.75in /  1007.3hPa Calm     84% 0.00in /  0mm 0 W/m2
02:09 68.6 °F /  20.3 °C 63.9 °F /  17.7 °C 29.76in /  1007.7hPa Calm     85% 0.00in /  0mm 0 W/m2
02:14 68.6 °F /  20.3 °C 63.9 °F /  17.7 °C 29.75in /  1007.3hPa Calm     85% 0.00in /  0mm 0 W/m2
02:19 68.6 °F /  20.3 °C 64.2 °F /  17.9 °C 29.76in /  1007.7hPa Calm     86% 0.00in /  0mm 0 W/m2
02:24 68.5 °F /  20.3 °C 64.1 °F /  17.8 °C 29.76in /  1007.7hPa Calm     86% 0.00in /  0mm 0 W/m2
02:29 68.4 °F /  20.2 °C 64.1 °F /  17.8 °C 29.76in /  1007.7hPa Calm     86% 0.00in /  0mm 0 W/m2
02:34 68.4 °F /  20.2 °C 64.1 °F /  17.8 °C 29.76in /  1007.7hPa Calm     86% 0.00in /  0mm 0 W/m2
02:39 68.4 °F /  20.2 °C 64.1 °F /  17.8 °C 29.76in /  1007.7hPa Calm     86% 0.00in /  0mm 0 W/m2
02:44 68.5 °F /  20.3 °C 64.1 °F /  17.8 °C 29.76in /  1007.7hPa Calm     86% 0.00in /  0mm 0 W/m2
02:49 68.5 °F /  20.3 °C 64.2 °F /  17.9 °C 29.76in /  1007.7hPa Calm     86% 0.00in /  0mm 0 W/m2
02:54 68.6 °F /  20.3 °C 64.3 °F /  17.9 °C 29.76in /  1007.7hPa Calm     86% 0.00in /  0mm 0 W/m2
02:59 68.7 °F /  20.4 °C 64.3 °F /  17.9 °C 29.76in /  1007.7hPa Calm     86% 0.00in /  0mm 0 W/m2
03:04 68.7 °F /  20.4 °C 64.4 °F /  18 °C 29.76in /  1007.7hPa Calm     86% 0.00in /  0mm 0 W/m2
03:09 68.7 °F /  20.4 °C 64.4 °F /  18 °C 29.76in /  1007.7hPa Calm     86% 0.00in /  0mm 0 W/m2
03:14 68.8 °F /  20.4 °C 64.4 °F /  18 °C 29.76in /  1007.7hPa Calm     86% 0.00in /  0mm 0 W/m2
03:19 68.8 °F /  20.4 °C 64.4 °F /  18 °C 29.76in /  1007.7hPa Calm     86% 0.00in /  0mm 0 W/m2
03:24 68.8 °F /  20.4 °C 64.4 °F /  18 °C 29.76in /  1007.7hPa Calm     86% 0.00in /  0mm 0 W/m2
03:29 68.8 °F /  20.4 °C 64.2 °F /  17.9 °C 29.76in /  1007.7hPa Calm     85.2% 0.00in /  0mm 0 W/m2
03:34 68.9 °F /  20.5 °C 64.4 °F /  18 °C 29.76in /  1007.7hPa Calm     85.4% 0.00in /  0mm 0 W/m2
03:39 68.9 °F /  20.5 °C 64.6 °F /  18.1 °C 29.76in /  1007.7hPa Calm     86% 0.00in /  0mm 0 W/m2
03:44 68.9 °F /  20.5 °C 64.6 °F /  18.1 °C 29.76in /  1007.7hPa Calm     86% 0.00in /  0mm 0 W/m2
03:49 68.9 °F /  20.5 °C 64.6 °F /  18.1 °C 29.75in /  1007.3hPa Calm     86% 0.00in /  0mm 0 W/m2
03:54 69 °F /  20.6 °C 64.6 °F /  18.1 °C 29.75in /  1007.3hPa Calm     86% 0.00in /  0mm 0 W/m2
03:59 69 °F /  20.6 °C 64.6 °F /  18.1 °C 29.76in /  1007.7hPa Calm     86% 0.00in /  0mm 0 W/m2
04:00 69 °F /  20.6 °C 64.6 °F /  18.1 °C 29.76in /  1007.7hPa Calm     86% 0.00in /  0mm 0 W/m2
04:09 69 °F /  20.6 °C 64.6 °F /  18.1 °C 29.76in /  1007.7hPa Calm     86% 0.00in /  0mm 0 W/m2
04:14 69 °F /  20.6 °C 64.6 °F /  18.1 °C 29.76in /  1007.7hPa Calm     86% 0.00in /  0mm 0 W/m2
04:19 69 °F /  20.6 °C 64.6 °F /  18.1 °C 29.76in /  1007.7hPa Calm     86% 0.00in /  0mm 0 W/m2
04:24 69 °F /  20.6 °C 64.7 °F /  18.2 °C 29.76in /  1007.7hPa Calm     86% 0.00in /  0mm 0 W/m2
04:29 69.1 °F /  20.6 °C 64.7 °F /  18.2 °C 29.76in /  1007.7hPa Calm     86% 0.00in /  0mm 0 W/m2
04:34 69 °F /  20.6 °C 64.6 °F /  18.1 °C 29.76in /  1007.7hPa Calm     86% 0.00in /  0mm 0 W/m2
04:39 69 °F /  20.6 °C 64.9 °F /  18.3 °C 29.76in /  1007.7hPa Calm     86.8% 0.00in /  0mm 0 W/m2
04:44 69.1 °F /  20.6 °C 65 °F /  18.3 °C 29.76in /  1007.7hPa Calm     87% 0.00in /  0mm 0 W/m2
04:49 69 °F /  20.6 °C 65 °F /  18.3 °C 29.76in /  1007.7hPa Calm     87% 0.00in /  0mm 0 W/m2
04:54 69 °F /  20.6 °C 65 °F /  18.3 °C 29.76in /  1007.7hPa Calm     87% 0.00in /  0mm 0 W/m2
04:59 69 °F /  20.6 °C 65 °F /  18.3 °C 29.76in /  1007.7hPa Calm     87% 0.00in /  0mm 0 W/m2
05:04 69 °F /  20.6 °C 65 °F /  18.3 °C 29.76in /  1007.7hPa Calm     87% 0.00in /  0mm 0 W/m2
05:09 69 °F /  20.6 °C 65 °F /  18.3 °C 29.76in /  1007.7hPa Calm     87.2% 0.00in /  0mm 0 W/m2
05:14 69 °F /  20.6 °C 65.1 °F /  18.4 °C 29.76in /  1007.7hPa Calm     87.5% 0.00in /  0mm 0 W/m2
05:19 68.9 °F /  20.5 °C 65.2 °F /  18.4 °C 29.76in /  1007.7hPa Calm     88% 0.00in /  0mm 0 W/m2
05:24 68.9 °F /  20.5 °C 65.2 °F /  18.4 °C 29.76in /  1007.7hPa Calm     88% 0.00in /  0mm 0 W/m2
05:29 68.9 °F /  20.5 °C 65.2 °F /  18.4 °C 29.76in /  1007.7hPa Calm     88% 0.00in /  0mm 0 W/m2
05:34 68.9 °F /  20.5 °C 65.2 °F /  18.4 °C 29.76in /  1007.7hPa Calm     88% 0.00in /  0mm 0 W/m2
05:39 68.9 °F /  20.5 °C 65.2 °F /  18.4 °C 29.76in /  1007.7hPa Calm     88% 0.00in /  0mm 0 W/m2
05:44 68.8 °F /  20.4 °C 65.1 °F /  18.4 °C 29.76in /  1007.7hPa Calm     88% 0.00in /  0mm 0 W/m2
05:49 68.8 °F /  20.4 °C 65.1 °F /  18.4 °C 29.77in /  1008hPa Calm     88% 0.00in /  0mm 0 W/m2
05:54 68.8 °F /  20.4 °C 65.1 °F /  18.4 °C 29.77in /  1008hPa Calm     88% 0.00in /  0mm 0 W/m2
05:59 68.8 °F /  20.4 °C 65.1 °F /  18.4 °C 29.78in /  1008.4hPa Calm     88% 0.00in /  0mm 0 W/m2
06:04 68.7 °F /  20.4 °C 65.2 °F /  18.4 °C 29.78in /  1008.4hPa Calm     88.6% 0.00in /  0mm 0 W/m2
06:09 68.6 °F /  20.3 °C 65.3 °F /  18.5 °C 29.78in /  1008.4hPa Calm     89% 0.00in /  0mm 0 W/m2
06:14 68.6 °F /  20.3 °C 65.2 °F /  18.4 °C 29.78in /  1008.4hPa Calm     89% 0.00in /  0mm 0 W/m2
06:19 68.5 °F /  20.3 °C 64.9 °F /  18.3 °C 29.79in /  1008.7hPa Calm     88.4% 0.00in /  0mm 0 W/m2
06:24 68.5 °F /  20.3 °C 64.8 °F /  18.2 °C 29.79in /  1008.7hPa Calm     88% 0.00in /  0mm 0 W/m2
06:29 68.5 °F /  20.3 °C 64.8 °F /  18.2 °C 29.79in /  1008.7hPa Calm     88% 0.00in /  0mm 0 W/m2
06:34 68.5 °F /  20.3 °C 64.8 °F /  18.2 °C 29.79in /  1008.7hPa Calm     88% 0.00in /  0mm 0 W/m2
06:39 68.4 °F /  20.2 °C 64.6 °F /  18.1 °C 29.79in /  1008.7hPa Calm     87.8% 0.00in /  0mm 5 W/m2
06:44 68.3 °F /  20.2 °C 64.3 °F /  17.9 °C 29.80in /  1009hPa Calm     87% 0.00in /  0mm 5 W/m2
06:49 68.4 °F /  20.2 °C 64.3 °F /  17.9 °C 29.80in /  1009hPa Calm     87% 0.00in /  0mm 7 W/m2
06:54 68.4 °F /  20.2 °C 64.4 °F /  18 °C 29.80in /  1009hPa Calm     87% 0.00in /  0mm 7 W/m2
06:59 68.5 °F /  20.3 °C 64.5 °F /  18.1 °C 29.80in /  1009hPa Calm     87% 0.00in /  0mm 7 W/m2
07:04 68.5 °F /  20.3 °C 64.5 °F /  18.1 °C 29.81in /  1009.4hPa Calm     87% 0.00in /  0mm 7 W/m2
07:09 68.5 °F /  20.3 °C 64.6 °F /  18.1 °C 29.82in /  1009.7hPa Calm     87.3% 0.00in /  0mm 12 W/m2
07:14 68.5 °F /  20.3 °C 64.8 °F /  18.2 °C 29.82in /  1009.7hPa Calm     88% 0.01in /  0.25mm 12 W/m2
07:19 68.5 °F /  20.3 °C 64.9 °F /  18.3 °C 29.82in /  1009.7hPa Calm     88.3% 0.01in /  0.25mm 12 W/m2
07:24 68.5 °F /  20.3 °C 65.1 °F /  18.4 °C 29.82in /  1009.7hPa Calm     89% 0.01in /  0.25mm 12 W/m2
07:29 68.4 °F /  20.2 °C 65.1 °F /  18.4 °C 29.81in /  1009.4hPa Calm     89% 0.01in /  0.25mm 11 W/m2
07:34 68.4 °F /  20.2 °C 65.2 °F /  18.4 °C 29.81in /  1009.4hPa Calm     89.6% 0.01in /  0.25mm 11 W/m2
07:39 68.4 °F /  20.2 °C 65.3 °F /  18.5 °C 29.81in /  1009.4hPa Calm     90% 0.01in /  0.25mm 12 W/m2
07:44 68.3 °F /  20.2 °C 65.3 °F /  18.5 °C 29.81in /  1009.4hPa Calm     90% 0.01in /  0.25mm 12 W/m2
07:49 68.2 °F /  20.1 °C 65.1 °F /  18.4 °C 29.82in /  1009.7hPa Calm     90% 0.01in /  0.25mm 11 W/m2
07:54 68.1 °F /  20.1 °C 65.1 °F /  18.4 °C 29.82in /  1009.7hPa Calm     90% 0.01in /  0.25mm 12 W/m2
07:59 68 °F /  20 °C 65.3 °F /  18.5 °C 29.82in /  1009.7hPa Calm     90.9% 0.01in /  0.25mm 12 W/m2
08:00 68 °F /  20 °C 65.3 °F /  18.5 °C 29.82in /  1009.7hPa Calm     91% 0.01in /  0.25mm 11 W/m2
08:09 67.9 °F /  19.9 °C 65.2 °F /  18.4 °C 29.82in /  1009.7hPa Calm     91% 0.02in /  0.51mm 19 W/m2
08:14 67.8 °F /  19.9 °C 65.1 °F /  18.4 °C 29.82in /  1009.7hPa Calm     91% 0.03in /  0.76mm 18 W/m2
08:19 67.8 °F /  19.9 °C 65.1 °F /  18.4 °C 29.82in /  1009.7hPa Calm     91.1% 0.03in /  0.76mm 16 W/m2
08:24 67.7 °F /  19.8 °C 65.2 °F /  18.4 °C 29.82in /  1009.7hPa Calm     91.7% 0.03in /  0.76mm 16 W/m2
08:29 67.6 °F /  19.8 °C 64.9 °F /  18.3 °C 29.82in /  1009.7hPa Calm     91% 0.03in /  0.76mm 16 W/m2
08:34 67.6 °F /  19.8 °C 65.2 °F /  18.4 °C 29.82in /  1009.7hPa Calm     92% 0.03in /  0.76mm 18 W/m2
08:39 67.5 °F /  19.7 °C 65.1 °F /  18.4 °C 29.82in /  1009.7hPa Calm     92% 0.02in /  0.51mm 26 W/m2
08:44 67.5 °F /  19.7 °C 65.1 °F /  18.4 °C 29.82in /  1009.7hPa Calm     92% 0.02in /  0.51mm 26 W/m2
08:49 67.4 °F /  19.7 °C 65 °F /  18.3 °C 29.81in /  1009.4hPa Calm     92% 0.02in /  0.51mm 28 W/m2
08:54 67.2 °F /  19.6 °C 64.8 °F /  18.2 °C 29.82in /  1009.7hPa Calm     92% 0.03in /  0.76mm 32 W/m2
08:59 67.2 °F /  19.6 °C 64.8 °F /  18.2 °C 29.82in /  1009.7hPa Calm     92% 0.03in /  0.76mm 26 W/m2
09:04 67.1 °F /  19.5 °C 64.7 °F /  18.2 °C 29.82in /  1009.7hPa Calm     92% 0.03in /  0.76mm 28 W/m2
09:05 67.1 °F /  19.5 °C 64.7 °F /  18.2 °C 29.82in /  1009.7hPa Calm     92% 0.03in /  0.76mm 30 W/m2
09:30 66.5 °F /  19.2 °C 63.8 °F /  17.7 °C 29.82in /  1009.7hPa Calm     91% 0.02in /  0.51mm 38 W/m2
10:00 66.5 °F /  19.2 °C 64.4 °F /  18 °C 29.82in /  1009.7hPa Calm     93% 0.04in /  1.02mm 45 W/m2
10:30 66.2 °F /  19 °C 64.1 °F /  17.8 °C 29.82in /  1009.7hPa Calm     93% 0.07in /  1.78mm 67 W/m2
11:00 66.6 °F /  19.2 °C 64.8 °F /  18.2 °C 29.82in /  1009.7hPa Calm   3mph /  4.8km/h 94% 0.11in /  2.79mm 69 W/m2
11:30 66.7 °F /  19.3 °C 64.9 °F /  18.3 °C 29.82in /  1009.7hPa Calm   2mph /  3.2km/h 94% 0.09in /  2.29mm 144 W/m2
12:04 66.9 °F /  19.4 °C 65.1 °F /  18.4 °C 29.82in /  1009.7hPa Calm     94% 0.13in /  3.3mm 79 W/m2
12:09 67 °F /  19.4 °C 65.2 °F /  18.4 °C 29.82in /  1009.7hPa Calm     94% 0.14in /  3.56mm 118 W/m2
12:14 67 °F /  19.4 °C 65.2 °F /  18.4 °C 29.82in /  1009.7hPa Calm     94% 0.15in /  3.81mm 118 W/m2
12:19 66.9 °F /  19.4 °C 65.1 °F /  18.4 °C 29.83in /  1010hPa Calm     94% 0.15in /  3.81mm 54 W/m2
12:24 66.9 °F /  19.4 °C 65.1 °F /  18.4 °C 29.83in /  1010hPa Calm     94% 0.16in /  4.06mm 79 W/m2
12:29 66.9 °F /  19.4 °C 65.1 °F /  18.4 °C 29.82in /  1009.7hPa Calm     94% 0.18in /  4.57mm 84 W/m2
12:34 67 °F /  19.4 °C 65.2 °F /  18.4 °C 29.83in /  1010hPa Calm     94% 0.18in /  4.57mm 42 W/m2
12:39 67 °F /  19.4 °C 65.2 °F /  18.4 °C 29.83in /  1010hPa Calm     94% 0.19in /  4.83mm 42 W/m2
12:44 67 °F /  19.4 °C 65.2 °F /  18.4 °C 29.82in /  1009.7hPa NE 0.3mph /  0.5km/h 3mph /  4.8km/h 94% 0.24in /  6.1mm 60 W/m2
12:49 66.8 °F /  19.3 °C 65 °F /  18.3 °C 29.82in /  1009.7hPa NE 0.2mph /  0.3km/h 3mph /  4.8km/h 94% 0.27in /  6.86mm 47 W/m2
12:54 66.8 °F /  19.3 °C 65 °F /  18.3 °C 29.83in /  1010hPa North 0.7mph /  1.1km/h 4mph /  6.4km/h 94% 0.31in /  7.87mm 42 W/m2
12:59 66.8 °F /  19.3 °C 65 °F /  18.3 °C 29.83in /  1010hPa North 0.1mph /  0.2km/h 4mph /  6.4km/h 94% 0.44in /  11.18mm 49 W/m2
13:04 66.7 °F /  19.3 °C 64.9 °F /  18.3 °C 29.84in /  1010.4hPa NE 1.8mph /  2.9km/h 5mph /  8km/h 94% 0.44in /  11.18mm 90 W/m2
13:09 66.4 °F /  19.1 °C 64.6 °F /  18.1 °C 29.81in /  1009.4hPa ENE 1.3mph /  2.1km/h 5mph /  8km/h 94% 0.48in /  12.19mm 146 W/m2
13:14 66.3 °F /  19.1 °C 64.5 °F /  18.1 °C 29.80in /  1009hPa NE 0.6mph /  1km/h 5mph /  8km/h 94% 0.49in /  12.45mm 151 W/m2
13:19 66.2 °F /  19 °C 64.4 °F /  18 °C 29.80in /  1009hPa ENE 0.5mph /  0.8km/h 5mph /  8km/h 94% 0.49in /  12.45mm 199 W/m2
13:24 66.1 °F /  18.9 °C 64.5 °F /  18.1 °C 29.80in /  1009hPa ENE 0.2mph /  0.3km/h 5mph /  8km/h 94.4% 0.49in /  12.45mm 193 W/m2
13:29 66.1 °F /  18.9 °C 64.6 °F /  18.1 °C 29.80in /  1009hPa ENE 0.8mph /  1.3km/h 6mph /  9.7km/h 94.9% 0.49in /  12.45mm 151 W/m2
13:34 66.1 °F /  18.9 °C 64.5 °F /  18.1 °C 29.81in /  1009.4hPa NE 0.4mph /  0.6km/h 6mph /  9.7km/h 94.7% 0.49in /  12.45mm 163 W/m2
13:39 66.1 °F /  18.9 °C 64.6 °F /  18.1 °C 29.81in /  1009.4hPa North 0.8mph /  1.3km/h 5mph /  8km/h 95% 0.49in /  12.45mm 137 W/m2
13:44 66.4 °F /  19.1 °C 64.9 °F /  18.3 °C 29.81in /  1009.4hPa NNE 0.3mph /  0.5km/h 5mph /  8km/h 95% 0.49in /  12.45mm 144 W/m2
13:49 66.7 °F /  19.3 °C 65.2 °F /  18.4 °C 29.81in /  1009.4hPa NNW 2.3mph /  3.7km/h 8mph /  12.9km/h 95% 0.49in /  12.45mm 139 W/m2
13:54 66.5 °F /  19.2 °C 65.1 °F /  18.4 °C 29.83in /  1010hPa WNW 3mph /  4.8km/h 8mph /  12.9km/h 95% 0.50in /  12.7mm 83 W/m2
13:59 66.3 °F /  19.1 °C 64.8 °F /  18.2 °C 29.83in /  1010hPa NNE 1.1mph /  1.8km/h 8mph /  12.9km/h 95% 0.51in /  12.95mm 98 W/m2
14:04 66.1 °F /  18.9 °C 64.6 °F /  18.1 °C 29.81in /  1009.4hPa ENE 1.1mph /  1.8km/h 8mph /  12.9km/h 95% 0.51in /  12.95mm 95 W/m2
14:09 66 °F /  18.9 °C 64.6 °F /  18.1 °C 29.81in /  1009.4hPa ENE 0.3mph /  0.5km/h 6mph /  9.7km/h 95% 0.22in /  5.59mm 83 W/m2
14:14 66.1 °F /  18.9 °C 64.6 °F /  18.1 °C 29.81in /  1009.4hPa NNE 0.3mph /  0.5km/h 6mph /  9.7km/h 95% 0.22in /  5.59mm 77 W/m2
14:19 66 °F /  18.9 °C 64.5 °F /  18.1 °C 29.82in /  1009.7hPa NNW 0.2mph /  0.3km/h 6mph /  9.7km/h 95% 0.23in /  5.84mm 74 W/m2
14:24 66 °F /  18.9 °C 64.5 °F /  18.1 °C 29.82in /  1009.7hPa NNW 0.8mph /  1.3km/h 6mph /  9.7km/h 95% 0.24in /  6.1mm 40 W/m2
14:29 66 °F /  18.9 °C 64.5 °F /  18.1 °C 29.82in /  1009.7hPa NNW 0.2mph /  0.3km/h 6mph /  9.7km/h 95% 0.27in /  6.86mm 44 W/m2
14:34 65.9 °F /  18.8 °C 64.5 °F /  18.1 °C 29.81in /  1009.4hPa NNW 0.4mph /  0.6km/h 6mph /  9.7km/h 95% 0.27in /  6.86mm 53 W/m2
14:39 65.9 °F /  18.8 °C 64.4 °F /  18 °C 29.81in /  1009.4hPa NNW 0.5mph /  0.8km/h 4mph /  6.4km/h 95% 0.13in /  3.3mm 56 W/m2
14:44 66 °F /  18.9 °C 64.5 °F /  18.1 °C 29.81in /  1009.4hPa NNW 0.1mph /  0.2km/h 4mph /  6.4km/h 95% 0.14in /  3.56mm 58 W/m2
14:49 66 °F /  18.9 °C 64.5 °F /  18.1 °C 29.81in /  1009.4hPa North 1mph /  1.6km/h 5mph /  8km/h 95% 0.15in /  3.81mm 47 W/m2
14:54 65.9 °F /  18.8 °C 64.5 °F /  18.1 °C 29.81in /  1009.4hPa ENE 0.6mph /  1km/h 5mph /  8km/h 95% 0.15in /  3.81mm 37 W/m2
14:59 65.8 °F /  18.8 °C 64.3 °F /  17.9 °C 29.81in /  1009.4hPa ENE 0.7mph /  1.1km/h 5mph /  8km/h 95% 0.17in /  4.32mm 37 W/m2
15:04 65.8 °F /  18.8 °C 64.3 °F /  17.9 °C 29.81in /  1009.4hPa ENE 0.7mph /  1.1km/h 5mph /  8km/h 95% 0.19in /  4.83mm 47 W/m2
15:09 65.8 °F /  18.8 °C 64.3 °F /  17.9 °C 29.81in /  1009.4hPa ENE 0.6mph /  1km/h 4mph /  6.4km/h 95% 0.21in /  5.33mm 40 W/m2
15:14 65.9 °F /  18.8 °C 64.5 °F /  18.1 °C 29.81in /  1009.4hPa Calm   4mph /  6.4km/h 95% 0.22in /  5.59mm 47 W/m2
15:19 66 °F /  18.9 °C 64.6 °F /  18.1 °C 29.79in /  1008.7hPa Calm   4mph /  6.4km/h 95% 0.24in /  6.1mm 53 W/m2
15:24 66.1 °F /  18.9 °C 64.7 °F /  18.2 °C 29.79in /  1008.7hPa NNE 1.2mph /  1.9km/h 5mph /  8km/h 95% 0.25in /  6.35mm 49 W/m2
15:29 66.1 °F /  18.9 °C 64.6 °F /  18.1 °C 29.79in /  1008.7hPa NE 0.2mph /  0.3km/h 5mph /  8km/h 95% 0.27in /  6.86mm 26 W/m2
15:34 66.1 °F /  18.9 °C 64.6 °F /  18.1 °C 29.80in /  1009hPa NE 0.1mph /  0.2km/h 5mph /  8km/h 95% 0.27in /  6.86mm 21 W/m2
15:39 66.1 °F /  18.9 °C 64.6 °F /  18.1 °C 29.80in /  1009hPa NNE 0.5mph /  0.8km/h 5mph /  8km/h 95% 0.28in /  7.11mm 21 W/m2
15:44 66 °F /  18.9 °C 64.6 °F /  18.1 °C 29.80in /  1009hPa NE 1.1mph /  1.8km/h 5mph /  8km/h 95% 0.32in /  8.13mm 19 W/m2
15:49 66 °F /  18.9 °C 64.5 °F /  18.1 °C 29.79in /  1008.7hPa ENE 0.1mph /  0.2km/h 5mph /  8km/h 95% 0.35in /  8.89mm 26 W/m2
15:54 66 °F /  18.9 °C 64.6 °F /  18.1 °C 29.80in /  1009hPa NNE 0.9mph /  1.4km/h 5mph /  8km/h 95.2% 0.38in /  9.65mm 18 W/m2
15:59 66.1 °F /  18.9 °C 64.9 °F /  18.3 °C 29.79in /  1008.7hPa Calm   5mph /  8km/h 96% 0.41in /  10.41mm 26 W/m2
16:09 66.2 °F /  19 °C 65 °F /  18.3 °C 29.80in /  1009hPa NW 1.5mph /  2.4km/h 5mph /  8km/h 96% 0.45in /  11.43mm 37 W/m2
16:14 66.3 °F /  19.1 °C 65.1 °F /  18.4 °C 29.80in /  1009hPa North 2mph /  3.2km/h 10mph /  16.1km/h 96% 0.46in /  11.68mm 44 W/m2
16:19 66.1 °F /  18.9 °C 64.9 °F /  18.3 °C 29.80in /  1009hPa WNW 1.7mph /  2.7km/h 10mph /  16.1km/h 96% 0.47in /  11.94mm 19 W/m2
16:24 66 °F /  18.9 °C 64.8 °F /  18.2 °C 29.78in /  1008.4hPa ENE 5.3mph /  8.5km/h 12mph /  19.3km/h 96% 0.51in /  12.95mm 35 W/m2
16:29 65.8 °F /  18.8 °C 64.6 °F /  18.1 °C 29.77in /  1008hPa NE 1.2mph /  1.9km/h 12mph /  19.3km/h 96% 0.54in /  13.72mm 28 W/m2
16:34 65.9 °F /  18.8 °C 64.7 °F /  18.2 °C 29.77in /  1008hPa NW 0.7mph /  1.1km/h 12mph /  19.3km/h 96% 0.54in /  13.72mm 9 W/m2
16:39 65.8 °F /  18.8 °C 64.7 °F /  18.2 °C 29.77in /  1008hPa NE 0.5mph /  0.8km/h 5mph /  8km/h 96% 0.35in /  8.89mm 11 W/m2
16:44 65.8 °F /  18.8 °C 64.6 °F /  18.1 °C 29.77in /  1008hPa NE 2.5mph /  4km/h 7mph /  11.3km/h 96% 0.35in /  8.89mm 18 W/m2
16:49 65.8 °F /  18.8 °C 64.6 °F /  18.1 °C 29.77in /  1008hPa NE 0.8mph /  1.3km/h 7mph /  11.3km/h 96% 0.35in /  8.89mm 19 W/m2
16:54 65.8 °F /  18.8 °C 64.6 °F /  18.1 °C 29.77in /  1008hPa NW 1.1mph /  1.8km/h 11mph /  17.7km/h 96% 0.35in /  8.89mm 18 W/m2
16:59 65.8 °F /  18.8 °C 64.6 °F /  18.1 °C 29.77in /  1008hPa NW 0.4mph /  0.6km/h 11mph /  17.7km/h 96% 0.35in /  8.89mm 11 W/m2
17:04 65.8 °F /  18.8 °C 64.7 °F /  18.2 °C 29.77in /  1008hPa NW 0.6mph /  1km/h 11mph /  17.7km/h 96% 0.35in /  8.89mm 25 W/m2
17:09 65.8 °F /  18.8 °C 64.6 °F /  18.1 °C 29.77in /  1008hPa NNE 0.2mph /  0.3km/h 9mph /  14.5km/h 96% 0.01in /  0.25mm 25 W/m2
17:14 65.9 °F /  18.8 °C 64.7 °F /  18.2 °C 29.77in /  1008hPa ENE 0.5mph /  0.8km/h 9mph /  14.5km/h 96% 0.02in /  0.51mm 23 W/m2
17:19 65.9 °F /  18.8 °C 64.7 °F /  18.2 °C 29.76in /  1007.7hPa North 0.3mph /  0.5km/h 9mph /  14.5km/h 96% 0.02in /  0.51mm 14 W/m2
17:24 65.8 °F /  18.8 °C 64.6 °F /  18.1 °C 29.77in /  1008hPa NW 1.7mph /  2.7km/h 9mph /  14.5km/h 96% 0.02in /  0.51mm 11 W/m2
17:29 65.8 °F /  18.8 °C 64.6 °F /  18.1 °C 29.79in /  1008.7hPa WNW 1.6mph /  2.6km/h 9mph /  14.5km/h 96% 0.02in /  0.51mm 5 W/m2
17:34 65.8 °F /  18.8 °C 64.6 °F /  18.1 °C 29.79in /  1008.7hPa WNW 2.5mph /  4km/h 9mph /  14.5km/h 96% 0.07in /  1.78mm 0 W/m2
17:39 65.7 °F /  18.7 °C 64.5 °F /  18.1 °C 29.79in /  1008.7hPa NW 1.7mph /  2.7km/h 10mph /  16.1km/h 96% 0.10in /  2.54mm 18 W/m2
17:44 65.6 °F /  18.7 °C 64.4 °F /  18 °C 29.78in /  1008.4hPa North 0.7mph /  1.1km/h 10mph /  16.1km/h 96% 0.10in /  2.54mm 19 W/m2
17:49 65.4 °F /  18.6 °C 64.2 °F /  17.9 °C 29.78in /  1008.4hPa NE 1.8mph /  2.9km/h 10mph /  16.1km/h 96% 0.10in /  2.54mm 9 W/m2
17:54 65.3 °F /  18.5 °C 64.1 °F /  17.8 °C 29.78in /  1008.4hPa NE 0.8mph /  1.3km/h 10mph /  16.1km/h 96% 0.11in /  2.79mm 0 W/m2
17:59 65.3 °F /  18.5 °C 64.1 °F /  17.8 °C 29.78in /  1008.4hPa North 0.5mph /  0.8km/h 10mph /  16.1km/h 96% 0.12in /  3.05mm 5 W/m2
18:04 65.3 °F /  18.5 °C 64.1 °F /  17.8 °C 29.78in /  1008.4hPa ENE 2.3mph /  3.7km/h 10mph /  16.1km/h 96% 0.12in /  3.05mm 11 W/m2
18:09 65.2 °F /  18.4 °C 64 °F /  17.8 °C 29.77in /  1008hPa ENE 1.1mph /  1.8km/h 10mph /  16.1km/h 96% 0.11in /  2.79mm 11 W/m2
18:14 65.2 °F /  18.4 °C 64 °F /  17.8 °C 29.77in /  1008hPa North 0.9mph /  1.4km/h 10mph /  16.1km/h 96% 0.11in /  2.79mm 5 W/m2
18:19 65.2 °F /  18.4 °C 64 °F /  17.8 °C 29.77in /  1008hPa North 0.6mph /  1km/h 10mph /  16.1km/h 96% 0.11in /  2.79mm 0 W/m2
18:24 65.1 °F /  18.4 °C 63.9 °F /  17.7 °C 29.77in /  1008hPa NNW 0.1mph /  0.2km/h 10mph /  16.1km/h 96% 0.11in /  2.79mm 0 W/m2
18:29 65 °F /  18.3 °C 63.9 °F /  17.7 °C 29.77in /  1008hPa NE 1.1mph /  1.8km/h 10mph /  16.1km/h 96% 0.11in /  2.79mm 0 W/m2
18:34 64.9 °F /  18.3 °C 63.8 °F /  17.7 °C 29.77in /  1008hPa North 0.4mph /  0.6km/h 10mph /  16.1km/h 96% 0.11in /  2.79mm 0 W/m2
18:39 64.9 °F /  18.3 °C 63.7 °F /  17.6 °C 29.75in /  1007.3hPa NNW 1.1mph /  1.8km/h 7mph /  11.3km/h 96% 0.10in /  2.54mm 0 W/m2
18:44 64.8 °F /  18.2 °C 63.6 °F /  17.6 °C 29.75in /  1007.3hPa ENE 0.9mph /  1.4km/h 7mph /  11.3km/h 96% 0.11in /  2.79mm 0 W/m2
18:49 64.7 °F /  18.2 °C 63.6 °F /  17.6 °C 29.76in /  1007.7hPa NNW 1.2mph /  1.9km/h 7mph /  11.3km/h 96% 0.18in /  4.57mm 0 W/m2
18:54 64.7 °F /  18.2 °C 63.5 °F /  17.5 °C 29.76in /  1007.7hPa NW 1.1mph /  1.8km/h 9mph /  14.5km/h 96% 0.23in /  5.84mm 0 W/m2
18:59 64.6 °F /  18.1 °C 63.4 °F /  17.4 °C 29.76in /  1007.7hPa NW 2.4mph /  3.9km/h 11mph /  17.7km/h 96% 0.25in /  6.35mm 0 W/m2
19:04 64.6 °F /  18.1 °C 63.4 °F /  17.4 °C 29.76in /  1007.7hPa NNW 2.3mph /  3.7km/h 11mph /  17.7km/h 96% 0.26in /  6.6mm 0 W/m2
19:09 64.5 °F /  18.1 °C 63.3 °F /  17.4 °C 29.76in /  1007.7hPa ENE 2.1mph /  3.4km/h 9mph /  14.5km/h 96% 0.24in /  6.1mm 0 W/m2
19:14 64.4 °F /  18 °C 63.2 °F /  17.3 °C 29.76in /  1007.7hPa NE 1.6mph /  2.6km/h 9mph /  14.5km/h 96% 0.26in /  6.6mm 0 W/m2
19:19 64.4 °F /  18 °C 63.2 °F /  17.3 °C 29.76in /  1007.7hPa NW 1mph /  1.6km/h 9mph /  14.5km/h 96% 0.28in /  7.11mm 0 W/m2
19:24 64.3 °F /  17.9 °C 63.2 °F /  17.3 °C 29.75in /  1007.3hPa NNW 0.5mph /  0.8km/h 9mph /  14.5km/h 96% 0.29in /  7.37mm 0 W/m2
19:29 64.3 °F /  17.9 °C 63.1 °F /  17.3 °C 29.75in /  1007.3hPa North 1.3mph /  2.1km/h 9mph /  14.5km/h 96% 0.30in /  7.62mm 0 W/m2
19:34 64.2 °F /  17.9 °C 63.1 °F /  17.3 °C 29.75in /  1007.3hPa NNW 0.8mph /  1.3km/h 9mph /  14.5km/h 96% 0.33in /  8.38mm 0 W/m2
19:39 64.2 °F /  17.9 °C 63 °F /  17.2 °C 29.75in /  1007.3hPa NNE 1.6mph /  2.6km/h 7mph /  11.3km/h 96% 0.36in /  9.14mm 0 W/m2
19:44 64.1 °F /  17.8 °C 63 °F /  17.2 °C 29.75in /  1007.3hPa North 1.3mph /  2.1km/h 7mph /  11.3km/h 96% 0.37in /  9.4mm 0 W/m2
19:49 64.1 °F /  17.8 °C 62.9 °F /  17.2 °C 29.76in /  1007.7hPa NNE 1.6mph /  2.6km/h 8mph /  12.9km/h 96% 0.39in /  9.91mm 0 W/m2
19:54 64 °F /  17.8 °C 62.8 °F /  17.1 °C 29.76in /  1007.7hPa ENE 0.5mph /  0.8km/h 8mph /  12.9km/h 96% 0.40in /  10.16mm 0 W/m2
19:59 64 °F /  17.8 °C 62.8 °F /  17.1 °C 29.77in /  1008hPa ENE 1.4mph /  2.3km/h 8mph /  12.9km/h 96% 0.42in /  10.67mm 0 W/m2
20:00 63.9 °F /  17.7 °C 62.7 °F /  17.1 °C 29.77in /  1008hPa Calm   8mph /  12.9km/h 96% 0.42in /  10.67mm 0 W/m2
20:09 63.9 °F /  17.7 °C 62.7 °F /  17.1 °C 29.76in /  1007.7hPa East 0.5mph /  0.8km/h 5mph /  8km/h 96% 0.31in /  7.87mm 0 W/m2
20:14 63.8 °F /  17.7 °C 62.6 °F /  17 °C 29.76in /  1007.7hPa NE 2.8mph /  4.5km/h 9mph /  14.5km/h 96% 0.35in /  8.89mm 0 W/m2
20:19 63.8 °F /  17.7 °C 62.6 °F /  17 °C 29.76in /  1007.7hPa ENE 4.2mph /  6.8km/h 12mph /  19.3km/h 96% 0.40in /  10.16mm 0 W/m2
20:24 63.7 °F /  17.6 °C 62.5 °F /  16.9 °C 29.75in /  1007.3hPa ENE 5.4mph /  8.7km/h 17mph /  27.4km/h 96% 0.44in /  11.18mm 0 W/m2
20:29 63.6 °F /  17.6 °C 62.4 °F /  16.9 °C 29.75in /  1007.3hPa NE 2.5mph /  4km/h 17mph /  27.4km/h 96% 0.47in /  11.94mm 0 W/m2
20:34 63.4 °F /  17.4 °C 62.3 °F /  16.8 °C 29.74in /  1007hPa NE 5.2mph /  8.4km/h 17mph /  27.4km/h 96% 0.47in /  11.94mm 0 W/m2
20:39 63.2 °F /  17.3 °C 62.1 °F /  16.7 °C 29.73in /  1006.7hPa ESE 2.6mph /  4.2km/h 14mph /  22.5km/h 96% 0.36in /  9.14mm 0 W/m2
20:44 63.1 °F /  17.3 °C 62 °F /  16.7 °C 29.72in /  1006.3hPa ENE 2.1mph /  3.4km/h 14mph /  22.5km/h 96% 0.39in /  9.91mm 0 W/m2
20:49 63 °F /  17.2 °C 61.9 °F /  16.6 °C 29.72in /  1006.3hPa ENE 3.5mph /  5.6km/h 14mph /  22.5km/h 96% 0.41in /  10.41mm 0 W/m2
20:54 62.9 °F /  17.2 °C 61.8 °F /  16.6 °C 29.72in /  1006.3hPa ENE 3.9mph /  6.3km/h 14mph /  22.5km/h 96% 0.43in /  10.92mm 0 W/m2
20:59 62.8 °F /  17.1 °C 61.7 °F /  16.5 °C 29.72in /  1006.3hPa ENE 3.5mph /  5.6km/h 14mph /  22.5km/h 96% 0.47in /  11.94mm 0 W/m2
21:04 62.7 °F /  17.1 °C 61.6 °F /  16.4 °C 29.72in /  1006.3hPa ENE 5.4mph /  8.7km/h 14mph /  22.5km/h 96% 0.47in /  11.94mm 0 W/m2
21:09 62.7 °F /  17.1 °C 61.6 °F /  16.4 °C 29.72in /  1006.3hPa ENE 5mph /  8km/h 13mph /  20.9km/h 96% 0.44in /  11.18mm 0 W/m2
21:14 62.7 °F /  17.1 °C 61.6 °F /  16.4 °C 29.72in /  1006.3hPa NE 4.7mph /  7.6km/h 13mph /  20.9km/h 96% 0.47in /  11.94mm 0 W/m2
21:19 62.7 °F /  17.1 °C 61.6 °F /  16.4 °C 29.72in /  1006.3hPa ENE 4.7mph /  7.6km/h 15mph /  24.1km/h 96% 0.50in /  12.7mm 0 W/m2
21:24 62.7 °F /  17.1 °C 61.6 °F /  16.4 °C 29.72in /  1006.3hPa NE 4.2mph /  6.8km/h 15mph /  24.1km/h 96% 0.53in /  13.46mm 0 W/m2
21:28 62.7 °F /  17.1 °C 61.6 °F /  16.4 °C 29.72in /  1006.3hPa ENE 3.1mph /  5km/h 15mph /  24.1km/h 96% 0.56in /  14.22mm 0 W/m2
21:30 62.7 °F /  17.1 °C 61.6 °F /  16.4 °C 29.72in /  1006.3hPa ENE 4mph /  6.4km/h 15mph /  24.1km/h 96% 0.21in /  5.33mm 0 W/m2
22:00 62.6 °F /  17 °C 61.7 °F /  16.5 °C 29.69in /  1005.3hPa ENE 4mph /  6.4km/h 16mph /  25.7km/h 97% 0.26in /  6.6mm 0 W/m2
22:44 62.3 °F /  16.8 °C 61.1 °F /  16.2 °C 29.66in /  1004.3hPa East 6.1mph /  9.8km/h 15mph /  24.1km/h 96% 0.80in /  20.32mm 0 W/m2
22:49 62.2 °F /  16.8 °C 61.1 °F /  16.2 °C 29.65in /  1003.9hPa ENE 7.2mph /  11.6km/h 16mph /  25.7km/h 96% 0.83in /  21.08mm 0 W/m2
22:54 62.2 °F /  16.8 °C 61.2 °F /  16.2 °C 29.65in /  1003.9hPa NE 7.5mph /  12.1km/h 18mph /  29km/h 96.7% 0.86in /  21.84mm 0 W/m2
22:59 62.1 °F /  16.7 °C 61.3 °F /  16.3 °C 29.65in /  1003.9hPa NE 7.7mph /  12.4km/h 19mph /  30.6km/h 97% 0.89in /  22.61mm 0 W/m2
23:04 62.1 °F /  16.7 °C 61.2 °F /  16.2 °C 29.64in /  1003.6hPa NE 7.6mph /  12.2km/h 19mph /  30.6km/h 97% 0.89in /  22.61mm 0 W/m2
23:09 62 °F /  16.7 °C 61.1 °F /  16.2 °C 29.63in /  1003.3hPa ENE 5.8mph /  9.3km/h 18mph /  29km/h 97% 0.91in /  23.11mm 0 W/m2
23:14 62 °F /  16.7 °C 61.1 °F /  16.2 °C 29.63in /  1003.3hPa NE 6mph /  9.7km/h 18mph /  29km/h 97% 0.97in /  24.64mm 0 W/m2
23:19 61.9 °F /  16.6 °C 61.1 °F /  16.2 °C 29.63in /  1003.3hPa ENE 4.8mph /  7.7km/h 18mph /  29km/h 97% 1.02in /  25.91mm 0 W/m2
23:24 61.9 °F /  16.6 °C 61 °F /  16.1 °C 29.63in /  1003.3hPa ENE 3.4mph /  5.5km/h 18mph /  29km/h 97% 1.05in /  26.67mm 0 W/m2
23:29 61.8 °F /  16.6 °C 61 °F /  16.1 °C 29.61in /  1002.6hPa ENE 6.4mph /  10.3km/h 18mph /  29km/h 97% 1.10in /  27.94mm 0 W/m2
23:34 61.8 °F /  16.6 °C 60.8 °F /  16 °C 29.61in /  1002.6hPa ENE 3.7mph /  6km/h 18mph /  29km/h 96.4% 1.10in /  27.94mm 0 W/m2
23:39 61.7 °F /  16.5 °C 60.6 °F /  15.9 °C 29.60in /  1002.3hPa ENE 4.8mph /  7.7km/h 16mph /  25.7km/h 96.1% 0.44in /  11.18mm 0 W/m2
23:44 61.7 °F /  16.5 °C 60.8 °F /  16 °C 29.60in /  1002.3hPa ENE 5mph /  8km/h 16mph /  25.7km/h 97% 0.55in /  13.97mm 0 W/m2
23:49 61.7 °F /  16.5 °C 60.8 °F /  16 °C 29.61in /  1002.6hPa ENE 5mph /  8km/h 16mph /  25.7km/h 97% 0.65in /  16.51mm 0 W/m2
23:54 61.7 °F /  16.5 °C 60.8 °F /  16 °C 29.60in /  1002.3hPa ENE 5.3mph /  8.5km/h 20mph /  32.2km/h 97% 0.76in /  19.3mm 0 W/m2
23:58 61.6 °F /  16.4 °C 60.8 °F /  16 °C 29.60in /  1002.3hPa NE 6.5mph /  10.5km/h 20mph /  32.2km/h 97% 0.85in /  21.59mm 0 W/m2
Hartford County Weather
Compliments of Weather Underground - 2 mb